Time;durP1;ratioP1;P1;durP2;ratioP2;P2;SDS_P1;SDS_P2;PMS_P1;PMS_P2;Temp;Humidity;BMP_temperature;BMP_pressure;BME280_temperature;BME280_humidity;BME280_pressure;Samples;Min_cycle;Max_cycle;Signal;HPM_P1;HPM_P2
2023/08/24 00:01:48;;;;;;;16.23;9.88;;;;;;;;;;5055569;28;20031;-75
2023/08/24 00:04:14;;;;;;;13.85;9.93;;;;;;;;;;5055413;28;20032;-75
2023/08/24 00:06:40;;;;;;;12.55;9.00;;;;;;;;;;5055457;28;20415;-75
2023/08/24 00:09:06;;;;;;;19.17;10.43;;;;;;;;;;5055440;28;20422;-75
2023/08/24 00:11:32;;;;;;;19.58;10.85;;;;;;;;;;5055659;28;20028;-75
2023/08/24 00:13:59;;;;;;;15.25;10.35;;;;;;;;;;5055238;28;20029;-75
2023/08/24 00:16:25;;;;;;;17.60;10.65;;;;;;;;;;5055555;28;20045;-75
2023/08/24 00:18:51;;;;;;;14.80;9.80;;;;;;;;;;5055292;28;20063;-75
2023/08/24 00:21:17;;;;;;;18.17;9.82;;;;;;;;;;5055128;28;20052;-75
2023/08/24 00:23:44;;;;;;;15.57;10.07;;;;;;;;;;5055410;28;20120;-75
2023/08/24 00:26:10;;;;;;;20.15;11.95;;;;;;;;;;5055128;28;20100;-75
2023/08/24 00:28:36;;;;;;;20.02;11.27;;;;;;;;;;5055318;28;20074;-75
2023/08/24 00:31:02;;;;;;;21.65;12.32;;;;;;;;;;5054926;28;20397;-75
2023/08/24 00:33:28;;;;;;;21.27;12.13;;;;;;;;;;5054847;28;20036;-75
2023/08/24 00:35:54;;;;;;;21.63;11.25;;;;;;;;;;5054913;28;20036;-75
2023/08/24 00:38:20;;;;;;;20.27;12.35;;;;;;;;;;5054967;28;20465;-75
2023/08/24 00:40:46;;;;;;;21.33;12.32;;;;;;;;;;5055048;28;20029;-75
2023/08/24 00:43:12;;;;;;;17.15;11.63;;;;;;;;;;5054806;28;20036;-75
2023/08/24 00:45:38;;;;;;;13.77;10.60;;;;;;;;;;5054523;28;20051;-75
2023/08/24 00:48:05;;;;;;;15.18;10.65;;;;;;;;;;5054641;28;20508;-75
2023/08/24 00:50:31;;;;;;;15.43;10.00;;;;;;;;;;5054875;28;20036;-75
2023/08/24 00:52:57;;;;;;;18.40;10.65;;;;;;;;;;5054916;28;20084;-75
2023/08/24 00:55:23;;;;;;;13.95;10.57;;;;;;;;;;5054558;28;20025;-75
2023/08/24 00:57:49;;;;;;;18.40;12.00;;;;;;;;;;5054859;28;20056;-75
2023/08/24 01:00:15;;;;;;;19.55;11.30;;;;;;;;;;5054475;28;20025;-75
2023/08/24 01:02:41;;;;;;;20.05;11.85;;;;;;;;;;5054459;28;20356;-75
2023/08/24 01:05:08;;;;;;;18.55;11.02;;;;;;;;;;5054443;28;20082;-75
2023/08/24 01:07:36;;;;;;;17.38;11.68;;;;;;;;;;5054265;28;20113;-75
2023/08/24 01:10:03;;;;;;;19.02;10.90;;;;;;;;;;5052952;28;20037;-75
2023/08/24 01:12:58;;;;;;;16.35;10.70;;;;;;;;;;5054247;28;20025;-75
2023/08/24 01:15:37;;;;;;;19.20;10.27;;;;;;;;;;5047941;28;20037;-75
2023/08/24 01:18:09;;;;;;;14.38;9.02;;;;;;;;;;5054046;28;20025;-75
2023/08/24 01:20:36;;;;;;;13.98;9.20;;;;;;;;;;5053775;28;20491;-75
2023/08/24 01:23:02;;;;;;;14.20;9.60;;;;;;;;;;5053717;28;20368;-75
2023/08/24 01:25:35;;;;;;;14.95;9.38;;;;;;;;;;5053947;28;20494;-75
2023/08/24 01:28:02;;;;;;;15.85;9.80;;;;;;;;;;5053671;28;20052;-74
2023/08/24 01:30:28;;;;;;;16.55;11.10;;;;;;;;;;5053956;28;20079;-75
2023/08/24 01:32:54;;;;;;;16.73;10.57;;;;;;;;;;5053880;28;20033;-75
2023/08/24 01:35:20;;;;;;;19.67;10.70;;;;;;;;;;5053901;28;20036;-75
2023/08/24 01:37:46;;;;;;;14.70;10.00;;;;;;;;;;5053772;28;20040;-75
2023/08/24 01:40:21;;;;;;;18.38;11.68;;;;;;;;;;5053673;28;20037;-75
2023/08/24 01:42:57;;;;;;;19.45;11.73;;;;;;;;;;5053981;28;20337;-75
2023/08/24 01:45:24;;;;;;;20.02;11.05;;;;;;;;;;5053644;28;20060;-75
2023/08/24 01:47:52;;;;;;;19.52;11.18;;;;;;;;;;5053677;28;20021;-75
2023/08/24 01:50:18;;;;;;;16.40;10.13;;;;;;;;;;5053429;28;20083;-75
2023/08/24 01:52:44;;;;;;;15.13;10.50;;;;;;;;;;5053391;28;20066;-75
2023/08/24 01:55:11;;;;;;;20.40;11.60;;;;;;;;;;5053320;28;20025;-75
2023/08/24 01:57:37;;;;;;;17.17;10.38;;;;;;;;;;5053272;28;20100;-75
2023/08/24 02:00:06;;;;;;;18.38;10.25;;;;;;;;;;5053596;28;20032;-75
2023/08/24 02:02:35;;;;;;;21.17;10.32;;;;;;;;;;5053680;28;20057;-75
2023/08/24 02:05:02;;;;;;;15.75;10.20;;;;;;;;;;5053343;28;20637;-75
2023/08/24 02:07:28;;;;;;;18.45;10.63;;;;;;;;;;5053394;28;20017;-76
2023/08/24 02:09:54;;;;;;;17.48;10.38;;;;;;;;;;5053136;28;20027;-76
2023/08/24 02:12:20;;;;;;;19.13;10.45;;;;;;;;;;5053102;28;20500;-76
2023/08/24 02:14:46;;;;;;;16.30;10.73;;;;;;;;;;5051649;28;20507;-76
2023/08/24 02:17:13;;;;;;;15.43;10.30;;;;;;;;;;5053054;28;20108;-76
2023/08/24 02:19:43;;;;;;;15.38;10.00;;;;;;;;;;5053011;28;20383;-77
2023/08/24 02:22:09;;;;;;;14.43;9.77;;;;;;;;;;5053007;28;20068;-77
2023/08/24 02:24:35;;;;;;;19.23;11.50;;;;;;;;;;5053120;28;20041;-76
2023/08/24 02:27:01;;;;;;;17.02;10.43;;;;;;;;;;5052747;28;20032;-76
2023/08/24 02:29:27;;;;;;;14.23;10.70;;;;;;;;;;5052799;28;20036;-77
2023/08/24 02:31:53;;;;;;;17.13;10.90;;;;;;;;;;5051429;28;20057;-76
2023/08/24 02:34:19;;;;;;;19.30;11.38;;;;;;;;;;5052635;28;20029;-76
2023/08/24 02:36:45;;;;;;;18.40;11.60;;;;;;;;;;5052665;28;20025;-76
2023/08/24 02:39:12;;;;;;;19.70;10.70;;;;;;;;;;5052718;28;20040;-76
2023/08/24 02:41:38;;;;;;;17.80;10.77;;;;;;;;;;5053151;28;20028;-76
2023/08/24 02:44:12;;;;;;;19.17;11.57;;;;;;;;;;5052398;28;20111;-77
2023/08/24 02:46:38;;;;;;;17.23;10.98;;;;;;;;;;5052618;28;20025;-76
2023/08/24 02:49:04;;;;;;;19.83;11.32;;;;;;;;;;5052643;28;20029;-77
2023/08/24 02:51:31;;;;;;;16.65;10.65;;;;;;;;;;5052546;28;20052;-77
2023/08/24 02:53:57;;;;;;;18.00;11.48;;;;;;;;;;5052658;28;20040;-76
2023/08/24 02:56:23;;;;;;;18.55;11.15;;;;;;;;;;5052492;28;20461;-76
2023/08/24 02:58:49;;;;;;;17.70;10.98;;;;;;;;;;5052320;28;20025;-76
2023/08/24 03:01:15;;;;;;;16.90;11.65;;;;;;;;;;5052900;28;20109;-76
2023/08/24 03:03:41;;;;;;;18.80;10.52;;;;;;;;;;5052723;28;20033;-76
2023/08/24 03:06:08;;;;;;;23.70;11.80;;;;;;;;;;5052300;28;20028;-77
2023/08/24 03:08:35;;;;;;;17.95;12.18;;;;;;;;;;5052334;28;20059;-77
2023/08/24 03:11:02;;;;;;;18.85;11.75;;;;;;;;;;5052332;28;20469;-76
2023/08/24 03:13:28;;;;;;;20.92;11.38;;;;;;;;;;5052211;28;20025;-76
2023/08/24 03:15:55;;;;;;;20.65;12.25;;;;;;;;;;5052222;28;20025;-76
2023/08/24 03:18:21;;;;;;;22.48;12.18;;;;;;;;;;5052232;28;20013;-76
2023/08/24 03:20:47;;;;;;;17.85;11.65;;;;;;;;;;5052144;28;20021;-76
2023/08/24 03:23:13;;;;;;;18.85;12.40;;;;;;;;;;5052195;28;20025;-76
2023/08/24 03:25:41;;;;;;;18.60;11.13;;;;;;;;;;5052168;28;20036;-76
2023/08/24 03:28:08;;;;;;;15.30;10.88;;;;;;;;;;5052058;28;20025;-76
2023/08/24 03:30:39;;;;;;;16.63;10.85;;;;;;;;;;5052110;28;20029;-76
2023/08/24 03:33:05;;;;;;;22.23;12.00;;;;;;;;;;5056181;28;20028;-76
2023/08/24 03:35:32;;;;;;;17.73;11.77;;;;;;;;;;5055932;28;20027;-77
2023/08/24 03:37:58;;;;;;;21.27;12.13;;;;;;;;;;5055965;28;20079;-76
2023/08/24 03:40:24;;;;;;;20.42;12.60;;;;;;;;;;5055960;28;20017;-76
2023/08/24 03:42:51;;;;;;;18.98;11.98;;;;;;;;;;5055946;28;20595;-76
2023/08/24 03:45:17;;;;;;;19.40;12.43;;;;;;;;;;5055381;28;20064;-76
2023/08/24 03:47:43;;;;;;;19.27;11.75;;;;;;;;;;5056054;28;20025;-77
2023/08/24 03:50:09;;;;;;;19.88;11.45;;;;;;;;;;5055665;28;20025;-77
2023/08/24 03:52:35;;;;;;;17.20;11.45;;;;;;;;;;5055748;28;20021;-77
2023/08/24 03:55:01;;;;;;;18.05;12.07;;;;;;;;;;5055613;28;20036;-76
2023/08/24 03:57:27;;;;;;;18.85;11.45;;;;;;;;;;5055616;28;20411;-76
2023/08/24 03:59:53;;;;;;;17.90;11.60;;;;;;;;;;5054309;28;20046;-76
2023/08/24 04:02:19;;;;;;;19.00;11.43;;;;;;;;;;5055536;28;20099;-76
2023/08/24 04:04:46;;;;;;;20.00;11.25;;;;;;;;;;5055523;28;20036;-76
2023/08/24 04:07:12;;;;;;;18.52;10.85;;;;;;;;;;5055362;28;20460;-77
2023/08/24 04:09:38;;;;;;;18.67;11.02;;;;;;;;;;5055516;28;20043;-76
2023/08/24 04:12:04;;;;;;;17.73;11.55;;;;;;;;;;5055393;28;20029;-77
2023/08/24 04:14:30;;;;;;;20.63;11.27;;;;;;;;;;5055287;28;20037;-76
2023/08/24 04:16:56;;;;;;;17.38;11.45;;;;;;;;;;5055298;28;20460;-76
2023/08/24 04:19:22;;;;;;;15.48;9.75;;;;;;;;;;5055235;28;20029;-77
2023/08/24 04:21:48;;;;;;;19.00;10.88;;;;;;;;;;5055148;28;20027;-77
2023/08/24 04:24:14;;;;;;;18.20;10.55;;;;;;;;;;5055168;28;20082;-77
2023/08/24 04:26:40;;;;;;;16.63;9.98;;;;;;;;;;5055008;28;20114;-76
2023/08/24 04:29:06;;;;;;;12.65;9.90;;;;;;;;;;5054983;28;20025;-76
2023/08/24 04:31:32;;;;;;;17.48;9.35;;;;;;;;;;5055061;28;20634;-77
2023/08/24 04:33:58;;;;;;;16.45;9.80;;;;;;;;;;5054769;28;20032;-77
2023/08/24 04:36:24;;;;;;;16.30;10.15;;;;;;;;;;5054876;28;20445;-76
2023/08/24 04:38:50;;;;;;;14.50;9.90;;;;;;;;;;5053616;28;20083;-77
2023/08/24 04:41:16;;;;;;;15.65;10.43;;;;;;;;;;5054835;28;20435;-76
2023/08/24 04:43:42;;;;;;;15.55;10.30;;;;;;;;;;5054398;28;20025;-76
2023/08/24 04:46:08;;;;;;;18.05;10.85;;;;;;;;;;5054456;28;20116;-77
2023/08/24 04:48:34;;;;;;;18.48;10.57;;;;;;;;;;5054670;28;20021;-76
2023/08/24 04:51:01;;;;;;;14.02;10.68;;;;;;;;;;5054894;28;20033;-76
2023/08/24 04:53:27;;;;;;;14.60;9.90;;;;;;;;;;5054565;28;20049;-77
2023/08/24 04:55:54;;;;;;;14.25;10.20;;;;;;;;;;5054746;28;20103;-76
2023/08/24 04:58:20;;;;;;;18.98;11.32;;;;;;;;;;5054737;28;20025;-76
2023/08/24 05:00:46;;;;;;;17.15;10.60;;;;;;;;;;5054566;28;20040;-76
2023/08/24 05:03:13;;;;;;;16.52;10.30;;;;;;;;;;5054352;28;20372;-76
2023/08/24 05:05:39;;;;;;;14.30;10.00;;;;;;;;;;5054080;28;20120;-76
2023/08/24 05:08:06;;;;;;;15.68;9.70;;;;;;;;;;5054333;28;20052;-77
2023/08/24 05:10:32;;;;;;;10.32;8.55;;;;;;;;;;5054398;28;20100;-77
2023/08/24 05:12:58;;;;;;;12.80;8.95;;;;;;;;;;5037483;28;20037;-77
2023/08/24 05:15:25;;;;;;;16.70;9.43;;;;;;;;;;5034084;28;20113;-77
2023/08/24 05:17:54;;;;;;;13.75;10.48;;;;;;;;;;5034495;28;20079;-77
2023/08/24 05:20:21;;;;;;;15.70;10.43;;;;;;;;;;5034514;28;20472;-77
2023/08/24 05:22:47;;;;;;;12.07;8.48;;;;;;;;;;5034205;28;20064;-77
2023/08/24 05:25:13;;;;;;;14.30;9.85;;;;;;;;;;5034179;28;20033;-77
2023/08/24 05:27:39;;;;;;;13.55;9.23;;;;;;;;;;5034113;28;20104;-77
2023/08/24 05:30:06;;;;;;;13.85;9.38;;;;;;;;;;5034029;28;20018;-77
2023/08/24 05:32:32;;;;;;;15.10;9.13;;;;;;;;;;5033044;28;20014;-77
2023/08/24 05:34:58;;;;;;;13.48;9.13;;;;;;;;;;5034155;28;20084;-77
2023/08/24 05:37:25;;;;;;;14.40;9.73;;;;;;;;;;5032632;28;20120;-77
2023/08/24 05:39:51;;;;;;;14.98;9.20;;;;;;;;;;5035159;28;20021;-78
2023/08/24 05:42:17;;;;;;;15.38;9.55;;;;;;;;;;5035229;28;20033;-77
2023/08/24 05:44:43;;;;;;;13.75;8.98;;;;;;;;;;5034538;28;20045;-78
2023/08/24 05:47:09;;;;;;;10.82;7.88;;;;;;;;;;5034849;28;20079;-78
2023/08/24 05:49:35;;;;;;;11.50;7.65;;;;;;;;;;5036028;28;20028;-78
2023/08/24 05:52:01;;;;;;;12.43;7.15;;;;;;;;;;5036683;28;20057;-78
2023/08/24 05:54:27;;;;;;;11.07;8.23;;;;;;;;;;5035238;28;20037;-78
2023/08/24 05:56:53;;;;;;;14.10;8.40;;;;;;;;;;5036577;28;20029;-79
2023/08/24 05:59:19;;;;;;;10.95;7.43;;;;;;;;;;5035501;28;20049;-79
2023/08/24 06:01:45;;;;;;;10.43;7.15;;;;;;;;;;5036164;28;20477;-79
2023/08/24 06:04:11;;;;;;;9.68;7.28;;;;;;;;;;5036514;28;20641;-78
2023/08/24 06:06:37;;;;;;;11.75;7.88;;;;;;;;;;5035359;28;20580;-79
2023/08/24 06:09:06;;;;;;;12.00;8.48;;;;;;;;;;5035182;28;20091;-79
2023/08/24 06:11:33;;;;;;;11.68;8.02;;;;;;;;;;5035895;28;20491;-78
2023/08/24 06:13:59;;;;;;;10.65;7.20;;;;;;;;;;5052497;28;20037;-78
2023/08/24 06:16:25;;;;;;;9.75;7.40;;;;;;;;;;5055318;28;20032;-78
2023/08/24 06:18:52;;;;;;;10.48;7.40;;;;;;;;;;5055344;28;20071;-78
2023/08/24 06:21:18;;;;;;;11.55;7.85;;;;;;;;;;5055178;28;20021;-78
2023/08/24 06:23:44;;;;;;;11.02;7.45;;;;;;;;;;5055049;28;20029;-78
2023/08/24 06:26:11;;;;;;;11.25;7.38;;;;;;;;;;5054292;28;20013;-78
2023/08/24 06:28:37;;;;;;;11.52;6.78;;;;;;;;;;5054393;28;20027;-78
2023/08/24 06:31:04;;;;;;;11.38;7.22;;;;;;;;;;5053554;28;20107;-77
2023/08/24 06:33:33;;;;;;;9.85;7.05;;;;;;;;;;5053020;28;20063;-77
2023/08/24 06:35:59;;;;;;;8.50;6.85;;;;;;;;;;5052853;28;20507;-77
2023/08/24 06:38:26;;;;;;;9.30;7.30;;;;;;;;;;5053420;28;20467;-77
2023/08/24 06:40:52;;;;;;;7.43;6.65;;;;;;;;;;5053272;28;20044;-76
2023/08/24 06:43:18;;;;;;;9.30;6.82;;;;;;;;;;5052292;28;20083;-77
2023/08/24 06:45:47;;;;;;;7.18;5.18;;;;;;;;;;5052487;28;20037;-77
2023/08/24 06:48:13;;;;;;;8.60;5.53;;;;;;;;;;5052538;28;20028;-77
2023/08/24 06:50:39;;;;;;;7.35;5.43;;;;;;;;;;5054916;28;20025;-77
2023/08/24 06:53:05;;;;;;;7.35;5.40;;;;;;;;;;5052950;28;20029;-77
2023/08/24 06:55:31;;;;;;;6.68;5.50;;;;;;;;;;5052503;28;20040;-77
2023/08/24 06:57:57;;;;;;;7.63;5.45;;;;;;;;;;5052571;28;20029;-77
2023/08/24 07:00:25;;;;;;;7.07;5.32;;;;;;;;;;5052597;28;20519;-77
2023/08/24 07:02:51;;;;;;;7.28;4.75;;;;;;;;;;5052930;28;20032;-77
2023/08/24 07:05:20;;;;;;;7.38;4.63;;;;;;;;;;5052103;28;20025;-77
2023/08/24 07:07:50;;;;;;;6.30;4.28;;;;;;;;;;5052344;28;20028;-77
2023/08/24 07:10:17;;;;;;;7.43;4.15;;;;;;;;;;5052349;28;20025;-77
2023/08/24 07:12:44;;;;;;;7.00;4.45;;;;;;;;;;5044986;28;20028;-77
2023/08/24 07:15:11;;;;;;;6.15;4.43;;;;;;;;;;5041360;28;20101;-78
2023/08/24 07:17:37;;;;;;;4.38;3.97;;;;;;;;;;5056915;28;20013;-77
2023/08/24 07:20:05;;;;;;;5.55;3.88;;;;;;;;;;5053614;28;20049;-78
2023/08/24 07:22:31;;;;;;;6.93;3.90;;;;;;;;;;5053695;28;20016;-78
2023/08/24 07:24:57;;;;;;;4.93;3.80;;;;;;;;;;5052482;28;20108;-77
2023/08/24 07:27:23;;;;;;;6.47;4.13;;;;;;;;;;5052316;28;20033;-77
2023/08/24 07:29:49;;;;;;;7.72;3.40;;;;;;;;;;5052618;28;20101;-77
2023/08/24 07:32:15;;;;;;;5.13;3.22;;;;;;;;;;5052525;28;20025;-78
2023/08/24 07:34:41;;;;;;;5.05;3.00;;;;;;;;;;5052618;28;20037;-78
2023/08/24 07:37:08;;;;;;;3.25;2.90;;;;;;;;;;5052401;28;20033;-76
2023/08/24 07:39:34;;;;;;;4.65;3.17;;;;;;;;;;5052126;28;20025;-76
2023/08/24 07:42:00;;;;;;;4.28;3.47;;;;;;;;;;5051995;28;20399;-76
2023/08/24 07:44:26;;;;;;;3.60;3.20;;;;;;;;;;5051494;28;20048;-76
2023/08/24 07:46:53;;;;;;;4.82;3.30;;;;;;;;;;5051990;28;20033;-75
2023/08/24 07:49:20;;;;;;;5.28;3.63;;;;;;;;;;5052147;28;20439;-76
2023/08/24 07:51:47;;;;;;;7.05;3.78;;;;;;;;;;5052418;28;20055;-75
2023/08/24 07:54:14;;;;;;;4.47;3.50;;;;;;;;;;5053169;28;20037;-76
2023/08/24 07:56:40;;;;;;;3.50;3.15;;;;;;;;;;5052182;28;20059;-75
2023/08/24 07:59:06;;;;;;;4.25;2.97;;;;;;;;;;5051894;28;20052;-75
2023/08/24 08:01:32;;;;;;;7.63;3.13;;;;;;;;;;5051863;28;20391;-75
2023/08/24 08:04:00;;;;;;;4.70;3.60;;;;;;;;;;5051769;28;20029;-75
2023/08/24 08:06:26;;;;;;;5.28;3.08;;;;;;;;;;5051944;28;20083;-76
2023/08/24 08:08:52;;;;;;;4.47;3.50;;;;;;;;;;5051950;28;20440;-76
2023/08/24 08:11:18;;;;;;;4.18;3.33;;;;;;;;;;5051661;28;20547;-76
2023/08/24 08:13:45;;;;;;;5.28;3.92;;;;;;;;;;5051572;28;20422;-75
2023/08/24 08:16:11;;;;;;;6.72;4.40;;;;;;;;;;5051651;28;20063;-77
2023/08/24 08:18:37;;;;;;;5.88;4.40;;;;;;;;;;5054892;28;20041;-77
2023/08/24 08:21:11;;;;;;;8.55;4.72;;;;;;;;;;5055148;28;20086;-76
2023/08/24 08:23:37;;;;;;;6.18;4.78;;;;;;;;;;5055349;28;20017;-77
2023/08/24 08:26:03;;;;;;;8.38;5.25;;;;;;;;;;5055051;28;20108;-77
2023/08/24 08:28:33;;;;;;;6.32;5.45;;;;;;;;;;5054294;28;20056;-77
2023/08/24 08:30:59;;;;;;;8.00;6.20;;;;;;;;;;5055272;28;20108;-76
2023/08/24 08:33:25;;;;;;;6.95;6.03;;;;;;;;;;5056490;28;20080;-77
2023/08/24 08:35:51;;;;;;;7.70;6.18;;;;;;;;;;5054705;28;20075;-77
2023/08/24 08:38:17;;;;;;;10.75;7.07;;;;;;;;;;5054979;28;20467;-76
2023/08/24 08:40:44;;;;;;;11.60;6.55;;;;;;;;;;5054964;28;20032;-77
2023/08/24 08:43:10;;;;;;;7.68;6.88;;;;;;;;;;5054715;28;20025;-76
2023/08/24 08:45:36;;;;;;;8.45;6.50;;;;;;;;;;5054345;28;20048;-76
2023/08/24 08:48:05;;;;;;;8.80;7.03;;;;;;;;;;5054516;28;20028;-76
2023/08/24 08:50:33;;;;;;;9.30;7.13;;;;;;;;;;5054648;28;20032;-76
2023/08/24 08:52:59;;;;;;;8.75;7.03;;;;;;;;;;5054737;28;20266;-76
2023/08/24 08:55:25;;;;;;;9.65;7.25;;;;;;;;;;5054578;28;20053;-76
2023/08/24 08:57:53;;;;;;;10.15;6.78;;;;;;;;;;5056565;28;20021;-76
2023/08/24 09:00:20;;;;;;;9.27;6.38;;;;;;;;;;5054895;28;20028;-76
2023/08/24 09:02:46;;;;;;;9.23;6.65;;;;;;;;;;5054305;28;20052;-76
2023/08/24 09:05:13;;;;;;;8.45;7.22;;;;;;;;;;5054307;28;20427;-76
2023/08/24 09:07:42;;;;;;;10.52;6.70;;;;;;;;;;5056154;28;20024;-79
2023/08/24 09:10:09;;;;;;;9.68;6.70;;;;;;;;;;5058582;28;20094;-80
2023/08/24 09:12:35;;;;;;;9.57;7.07;;;;;;;;;;5058192;28;20368;-80
2023/08/24 09:15:07;;;;;;;10.20;6.75;;;;;;;;;;5060105;28;20033;-80
2023/08/24 09:17:34;;;;;;;7.80;7.00;;;;;;;;;;5059690;28;20029;-79
2023/08/24 09:20:01;;;;;;;8.07;7.18;;;;;;;;;;5059918;28;20021;-79
2023/08/24 09:22:26;;;;;;;10.05;7.03;;;;;;;;;;5054442;28;20662;-79
2023/08/24 09:24:54;;;;;;;7.63;6.88;;;;;;;;;;5055462;28;20041;-79
2023/08/24 09:27:21;;;;;;;9.05;7.15;;;;;;;;;;5055528;28;20543;-78
2023/08/24 09:29:51;;;;;;;11.20;7.30;;;;;;;;;;5052895;28;20029;-79
2023/08/24 09:32:17;;;;;;;;;;;;;;;;;;5054878;28;20498;-80
2023/08/24 09:34:43;;;;;;;14.90;7.32;;;;;;;;;;5055785;28;19912;-79
2023/08/24 09:37:15;;;;;;;8.10;6.82;;;;;;;;;;5066973;28;20055;-80
2023/08/24 09:39:42;;;;;;;11.43;7.45;;;;;;;;;;5068014;28;20032;-80
2023/08/24 09:42:08;;;;;;;9.00;7.55;;;;;;;;;;5054944;28;20018;-80
2023/08/24 09:44:34;;;;;;;10.55;7.47;;;;;;;;;;5055043;28;20064;-81
2023/08/24 09:46:59;;;;;;;10.90;7.78;;;;;;;;;;5054604;28;20025;-80
2023/08/24 09:49:26;;;;;;;13.38;7.95;;;;;;;;;;5054731;28;20025;-80
2023/08/24 09:51:57;;;;;;;12.80;7.85;;;;;;;;;;5054896;28;20017;-80
2023/08/24 09:54:26;;;;;;;11.82;8.02;;;;;;;;;;5054348;28;20029;-80
2023/08/24 09:56:53;;;;;;;10.98;7.72;;;;;;;;;;5054357;28;20025;-80
2023/08/24 09:59:24;;;;;;;9.90;7.55;;;;;;;;;;5054937;28;20024;-80
2023/08/24 10:01:51;;;;;;;11.77;7.93;;;;;;;;;;5054771;28;20021;-80
2023/08/24 10:04:28;;;;;;;12.68;7.80;;;;;;;;;;5055173;28;20028;-81
2023/08/24 10:07:11;;;;;;;12.60;8.77;;;;;;;;;;5058226;28;20121;-81
2023/08/24 10:09:43;;;;;;;10.32;7.93;;;;;;;;;;5035519;28;20587;-81
2023/08/24 10:12:09;;;;;;;11.05;8.55;;;;;;;;;;5033455;28;20116;-81
2023/08/24 10:14:35;;;;;;;12.68;8.80;;;;;;;;;;5042215;28;20029;-81
2023/08/24 10:17:01;;;;;;;11.82;8.73;;;;;;;;;;5062785;28;20021;-81
2023/08/24 10:19:28;;;;;;;13.55;8.68;;;;;;;;;;5058520;28;20029;-81
2023/08/24 10:21:57;;;;;;;15.05;9.35;;;;;;;;;;5053999;28;20099;-81
2023/08/24 10:24:23;;;;;;;13.77;9.45;;;;;;;;;;5054670;28;20021;-81
2023/08/24 10:26:50;;;;;;;12.82;8.82;;;;;;;;;;5054126;28;20049;-81
2023/08/24 10:29:17;;;;;;;13.02;9.25;;;;;;;;;;5051257;28;20022;-80
2023/08/24 10:31:44;;;;;;;12.07;8.68;;;;;;;;;;5037441;28;20465;-81
2023/08/24 10:34:10;;;;;;;15.27;9.80;;;;;;;;;;5058418;28;20090;-81
2023/08/24 10:36:49;;;;;;;16.58;9.23;;;;;;;;;;5054802;28;20028;-81
2023/08/24 10:39:17;;;;;;;11.88;9.02;;;;;;;;;;5056029;28;20025;-81
2023/08/24 10:41:50;;;;;;;14.85;10.15;;;;;;;;;;5054303;28;20028;-81
2023/08/24 10:44:24;;;;;;;10.68;9.57;;;;;;;;;;5058562;28;20032;-82
2023/08/24 10:47:09;;;;;;;13.77;10.63;;;;;;;;;;5053953;28;20461;-82
2023/08/24 10:49:35;;;;;;;12.52;10.18;;;;;;;;;;5053805;28;20032;-82
2023/08/24 10:52:18;;;;;;;23.10;11.45;;;;;;;;;;5069169;28;20025;-81
2023/08/24 10:54:45;;;;;;;15.90;11.30;;;;;;;;;;5073993;28;20056;-80
2023/08/24 10:57:19;;;;;;;15.70;10.88;;;;;;;;;;5074250;28;20099;-81
2023/08/24 10:59:45;;;;;;;20.15;11.68;;;;;;;;;;5074166;28;20682;-81
2023/08/24 11:02:19;;;;;;;16.65;11.48;;;;;;;;;;5076588;28;20100;-81
2023/08/24 11:05:05;;;;;;;21.02;11.65;;;;;;;;;;5074118;28;20020;-80
2023/08/24 11:07:31;;;;;;;19.42;12.13;;;;;;;;;;5073979;28;20559;-81
2023/08/24 11:09:57;;;;;;;27.98;12.15;;;;;;;;;;5073438;28;20082;-82
2023/08/24 11:12:23;;;;;;;18.13;11.93;;;;;;;;;;5073534;28;20051;-82
2023/08/24 11:14:58;;;;;;;19.17;12.18;;;;;;;;;;5073421;28;20033;-81
2023/08/24 11:17:24;;;;;;;23.38;12.65;;;;;;;;;;5075680;28;20078;-80
2023/08/24 11:19:54;;;;;;;16.58;12.93;;;;;;;;;;5070190;28;20452;-82
2023/08/24 11:22:21;;;;;;;20.55;12.13;;;;;;;;;;5053302;28;20029;-82
2023/08/24 11:24:47;;;;;;;17.20;13.32;;;;;;;;;;5054031;28;20025;-82
2023/08/24 11:27:37;;;;;;;21.02;12.98;;;;;;;;;;5058450;28;20422;-81
2023/08/24 11:30:05;;;;;;;20.73;13.82;;;;;;;;;;5036924;28;20107;-80
2023/08/24 11:32:31;;;;;;;17.63;13.82;;;;;;;;;;5036577;28;20020;-81
2023/08/24 11:34:57;;;;;;;18.17;13.00;;;;;;;;;;5038461;28;20449;-80
2023/08/24 11:37:23;;;;;;;19.55;14.00;;;;;;;;;;5040547;28;20032;-80
2023/08/24 11:39:49;;;;;;;24.17;14.43;;;;;;;;;;5053840;28;20395;-80
2023/08/24 11:42:15;;;;;;;23.45;14.32;;;;;;;;;;5054135;28;20472;-82
2023/08/24 11:44:46;;;;;;;22.33;13.63;;;;;;;;;;5054131;28;20056;-80
2023/08/24 11:47:12;;;;;;;19.83;13.75;;;;;;;;;;5039358;28;20052;-83
2023/08/24 11:49:38;;;;;;;19.50;14.10;;;;;;;;;;5056775;28;20048;-79
2023/08/24 11:52:04;;;;;;;20.17;15.05;;;;;;;;;;5048824;28;20041;-80
2023/08/24 11:54:33;;;;;;;22.45;15.20;;;;;;;;;;5049448;28;20040;-79
2023/08/24 11:56:59;;;;;;;21.75;14.82;;;;;;;;;;5052654;28;20056;-79
2023/08/24 11:59:41;;;;;;;24.92;14.70;;;;;;;;;;5046757;28;20033;-80
2023/08/24 12:02:20;;;;;;;20.92;14.63;;;;;;;;;;5050168;28;20464;-79
2023/08/24 12:04:49;;;;;;;24.90;14.57;;;;;;;;;;5038167;28;20480;-80
2023/08/24 12:07:15;;;;;;;19.58;14.18;;;;;;;;;;5036781;28;20071;-80
2023/08/24 12:09:42;;;;;;;17.85;14.55;;;;;;;;;;5041827;28;20025;-80
2023/08/24 12:12:14;;;;;;;21.83;14.55;;;;;;;;;;5056386;28;20025;-80
2023/08/24 12:14:43;;;;;;;20.45;14.10;;;;;;;;;;5056997;28;20037;-80
2023/08/24 12:17:10;;;;;;;24.10;15.68;;;;;;;;;;5057148;28;20028;-82
2023/08/24 12:19:36;;;;;;;17.58;13.45;;;;;;;;;;5037372;28;20026;-81
2023/08/24 12:22:02;;;;;;;22.63;15.20;;;;;;;;;;5049464;28;20364;-81
2023/08/24 12:24:28;;;;;;;19.67;15.52;;;;;;;;;;5055661;28;20152;-81
2023/08/24 12:27:04;;;;;;;21.83;15.88;;;;;;;;;;5050629;28;20056;-82
2023/08/24 12:29:30;;;;;;;20.55;16.02;;;;;;;;;;5055161;28;20035;-79
2023/08/24 12:31:59;;;;;;;23.33;17.23;;;;;;;;;;5066792;28;20020;-79
2023/08/24 12:34:25;;;;;;;21.73;17.48;;;;;;;;;;5056002;28;20045;-78
2023/08/24 12:36:51;;;;;;;21.13;17.67;;;;;;;;;;5049919;28;20059;-79
2023/08/24 12:39:17;;;;;;;22.45;16.73;;;;;;;;;;5065353;28;20029;-79
2023/08/24 12:41:43;;;;;;;19.88;16.33;;;;;;;;;;5062034;28;20400;-79
2023/08/24 12:44:09;;;;;;;16.70;14.60;;;;;;;;;;5052441;28;20104;-79
2023/08/24 12:46:37;;;;;;;14.55;12.50;;;;;;;;;;5059048;28;20442;-78
2023/08/24 12:49:03;;;;;;;18.63;13.02;;;;;;;;;;5050783;28;20139;-80
2023/08/24 12:51:30;;;;;;;19.25;13.23;;;;;;;;;;5057259;28;20180;-78
2023/08/24 12:53:56;;;;;;;17.40;12.93;;;;;;;;;;5044571;28;20025;-77
2023/08/24 12:56:22;;;;;;;18.58;13.68;;;;;;;;;;5054757;28;20082;-77
2023/08/24 12:58:48;;;;;;;16.77;13.20;;;;;;;;;;5038981;28;20412;-77
2023/08/24 13:01:14;;;;;;;16.65;13.32;;;;;;;;;;5035069;28;20030;-77
2023/08/24 13:03:40;;;;;;;16.42;11.93;;;;;;;;;;5049625;28;20032;-78
2023/08/24 13:06:07;;;;;;;16.60;13.25;;;;;;;;;;5052875;28;20029;-78
2023/08/24 13:08:33;;;;;;;16.23;13.57;;;;;;;;;;5051439;28;20049;-79
2023/08/24 13:10:59;;;;;;;20.50;13.88;;;;;;;;;;5057759;28;20025;-79
2023/08/24 13:13:25;;;;;;;15.90;12.27;;;;;;;;;;5045205;28;20104;-79
2023/08/24 13:15:51;;;;;;;16.38;13.35;;;;;;;;;;5059252;28;20064;-79
2023/08/24 13:18:17;;;;;;;19.65;13.38;;;;;;;;;;5053108;28;20483;-78
2023/08/24 13:20:43;;;;;;;17.35;12.85;;;;;;;;;;5056859;28;20094;-79
2023/08/24 13:23:09;;;;;;;18.73;12.45;;;;;;;;;;5046799;28;20156;-78
2023/08/24 13:25:35;;;;;;;16.35;13.60;;;;;;;;;;5050752;28;20029;-79
2023/08/24 13:28:02;;;;;;;17.40;14.13;;;;;;;;;;5045269;28;20033;-79
2023/08/24 13:30:28;;;;;;;20.17;14.10;;;;;;;;;;5057085;28;20021;-78
2023/08/24 13:32:54;;;;;;;16.90;14.27;;;;;;;;;;5055228;28;20036;-78
2023/08/24 13:35:20;;;;;;;16.55;14.73;;;;;;;;;;5056696;28;20037;-79
2023/08/24 13:37:47;;;;;;;20.60;16.73;;;;;;;;;;5057193;28;20024;-78
2023/08/24 13:40:13;;;;;;;19.52;15.85;;;;;;;;;;5048726;28;20033;-79
2023/08/24 13:42:39;;;;;;;20.25;16.42;;;;;;;;;;5036854;28;20021;-78
2023/08/24 13:45:05;;;;;;;17.58;15.75;;;;;;;;;;5056520;28;20185;-79
2023/08/24 13:47:32;;;;;;;19.27;16.23;;;;;;;;;;5054652;28;20029;-79
2023/08/24 13:49:58;;;;;;;25.42;16.65;;;;;;;;;;5057299;28;20080;-78
2023/08/24 13:52:24;;;;;;;18.15;16.15;;;;;;;;;;5052388;28;20384;-78
2023/08/24 13:54:50;;;;;;;19.77;16.20;;;;;;;;;;5065990;28;20140;-79
2023/08/24 13:57:16;;;;;;;16.55;13.93;;;;;;;;;;5050169;28;20096;-79
2023/08/24 13:59:42;;;;;;;18.27;15.13;;;;;;;;;;5047509;28;20057;-79
2023/08/24 14:02:08;;;;;;;17.38;13.80;;;;;;;;;;5052566;28;20029;-80
2023/08/24 14:04:34;;;;;;;16.73;13.80;;;;;;;;;;5047257;28;20021;-80
2023/08/24 14:07:00;;;;;;;17.48;14.18;;;;;;;;;;5046440;28;20083;-80
2023/08/24 14:09:26;;;;;;;14.88;13.25;;;;;;;;;;5055451;28;20029;-80
2023/08/24 14:11:52;;;;;;;15.75;13.02;;;;;;;;;;5050003;28;20025;-80
2023/08/24 14:14:18;;;;;;;15.10;13.40;;;;;;;;;;5052690;28;20064;-80
2023/08/24 14:16:45;;;;;;;14.23;11.93;;;;;;;;;;5055165;28;20100;-80
2023/08/24 14:19:11;;;;;;;16.25;12.00;;;;;;;;;;5043280;28;20017;-80
2023/08/24 14:21:37;;;;;;;13.55;11.45;;;;;;;;;;5049794;28;20357;-80
2023/08/24 14:24:03;;;;;;;15.32;12.40;;;;;;;;;;5055371;28;20033;-80
2023/08/24 14:26:29;;;;;;;16.92;12.10;;;;;;;;;;5053156;28;20028;-81